Time;durP1;ratioP1;P1;durP2;ratioP2;P2;SDS_P1;SDS_P2;PMS_P1;PMS_P2;Temp;Humidity;BMP_temperature;BMP_pressure;BME280_temperature;BME280_humidity;BME280_pressure;Samples;Min_cycle;Max_cycle;Signal;HPM_P1;HPM_P2
2022/03/02 00:01:58;;;;;;;29.13;14.23;;;;;;;-1.17;68.59;100278.81;5034190;28;20045;-55
2022/03/02 00:04:24;;;;;;;30.13;14.43;;;;;;;-1.21;70.85;100273.97;5035268;28;20116;-52
2022/03/02 00:06:49;;;;;;;37.03;17.10;;;;;;;-1.29;69.81;100274.66;5037122;28;20064;-55
2022/03/02 00:09:15;;;;;;;33.67;16.15;;;;;;;-1.34;72.01;100287.41;5029890;28;20513;-54
2022/03/02 00:11:40;;;;;;;27.88;14.23;;;;;;;-1.49;69.90;100276.47;5029792;28;20575;-54
2022/03/02 00:14:06;;;;;;;23.27;11.00;;;;;;;-1.29;68.55;100287.81;5034403;28;20041;-55
2022/03/02 00:16:32;;;;;;;20.75;9.93;;;;;;;-1.33;67.51;100294.31;5039165;28;20086;-55
2022/03/02 00:18:58;;;;;;;23.33;13.10;;;;;;;-1.44;68.76;100295.28;5036882;28;20033;-54
2022/03/02 00:21:24;;;;;;;30.08;12.70;;;;;;;-1.68;71.57;100297.50;5037889;28;20080;-53
2022/03/02 00:23:49;;;;;;;24.45;12.02;;;;;;;-1.95;72.42;100283.22;5029890;28;20037;-54
2022/03/02 00:26:15;;;;;;;22.70;10.45;;;;;;;-1.73;70.23;100292.66;5029404;28;20400;-55
2022/03/02 00:28:40;;;;;;;22.17;10.25;;;;;;;-1.62;69.35;100286.41;5032474;28;20037;-53
2022/03/02 00:31:06;;;;;;;18.00;9.52;;;;;;;-1.44;68.97;100286.59;5031573;28;20041;-55
2022/03/02 00:33:31;;;;;;;16.85;9.77;;;;;;;-1.27;68.76;100288.50;5037231;28;20036;-53
2022/03/02 00:35:57;;;;;;;24.48;11.20;;;;;;;-1.28;67.75;100281.56;5035218;28;20086;-55
2022/03/02 00:38:22;;;;;;;19.48;9.57;;;;;;;-1.17;69.33;100277.97;5029833;28;20083;-53
2022/03/02 00:40:48;;;;;;;22.92;9.80;;;;;;;-1.21;70.45;100282.69;5035824;28;20473;-55
2022/03/02 00:43:13;;;;;;;19.45;10.70;;;;;;;-1.25;71.49;100281.28;5030551;28;20037;-55
2022/03/02 00:45:39;;;;;;;21.65;10.30;;;;;;;-1.06;72.70;100279.63;5034879;28;20053;-54
2022/03/02 00:48:05;;;;;;;20.60;9.35;;;;;;;-1.13;71.31;100272.25;5034546;28;20029;-55
2022/03/02 00:50:31;;;;;;;17.50;8.85;;;;;;;-1.01;70.90;100282.66;5027308;28;20056;-55
2022/03/02 00:52:56;;;;;;;14.07;7.80;;;;;;;-1.12;67.88;100279.22;5039038;28;20383;-55
2022/03/02 00:55:22;;;;;;;14.27;8.18;;;;;;;-1.14;70.26;100283.78;5031255;28;20092;-55
2022/03/02 00:57:47;;;;;;;17.52;9.10;;;;;;;-1.28;68.95;100276.31;5020370;28;20033;-55
2022/03/02 01:00:14;;;;;;;21.75;10.38;;;;;;;-1.47;70.65;100281.56;5034292;28;20045;-53
2022/03/02 01:02:39;;;;;;;18.42;9.48;;;;;;;-1.57;71.58;100285.06;5033218;28;20040;-52
2022/03/02 01:05:05;;;;;;;20.92;10.30;;;;;;;-1.58;75.67;100282.56;5030787;28;20033;-55
2022/03/02 01:07:31;;;;;;;19.10;9.88;;;;;;;-1.72;73.08;100275.94;5031255;28;20440;-54
2022/03/02 01:09:56;;;;;;;23.50;11.25;;;;;;;-1.65;75.13;100269.13;5033420;28;20029;-55
2022/03/02 01:12:21;;;;;;;21.88;11.45;;;;;;;-1.86;73.58;100260.56;5033595;28;20048;-55
2022/03/02 01:14:47;;;;;;;22.08;11.43;;;;;;;-1.75;75.57;100247.25;5042255;28;20036;-54
2022/03/02 01:17:12;;;;;;;17.17;9.15;;;;;;;-1.68;70.74;100250.19;5030686;28;20102;-55
2022/03/02 01:19:39;;;;;;;15.65;8.70;;;;;;;-1.66;72.23;100251.69;5034665;28;20102;-55
2022/03/02 01:22:05;;;;;;;15.48;8.57;;;;;;;-1.57;73.41;100245.63;5030120;28;20445;-56
2022/03/02 01:24:30;;;;;;;20.23;9.15;;;;;;;-1.47;75.03;100244.75;5028913;28;20036;-55
2022/03/02 01:26:56;;;;;;;17.90;9.65;;;;;;;-1.33;72.51;100241.72;5028136;28;20479;-54
2022/03/02 01:29:23;;;;;;;19.95;9.38;;;;;;;-1.42;70.29;100227.63;5028588;28;20140;-53
2022/03/02 01:31:48;;;;;;;27.55;13.52;;;;;;;-1.32;71.17;100227.59;5027592;28;20041;-54
2022/03/02 01:34:13;;;;;;;17.08;10.35;;;;;;;-1.34;71.05;100225.09;5032659;28;20033;-53
2022/03/02 01:36:39;;;;;;;21.25;8.98;;;;;;;-1.39;70.26;100226.50;5034639;28;20121;-54
2022/03/02 01:39:04;;;;;;;18.13;9.68;;;;;;;-1.53;70.43;100225.13;5037807;28;20037;-53
2022/03/02 01:41:30;;;;;;;19.25;9.77;;;;;;;-1.68;72.73;100226.53;5036128;28;20048;-58
2022/03/02 01:43:55;;;;;;;19.58;9.85;;;;;;;-1.96;73.12;100210.63;5035623;28;20048;-55
2022/03/02 01:46:21;;;;;;;18.73;10.02;;;;;;;-2.18;73.88;100204.63;5032754;28;20056;-55
2022/03/02 01:48:46;;;;;;;21.52;10.18;;;;;;;-2.18;73.28;100209.06;5030561;28;20033;-54
2022/03/02 01:51:13;;;;;;;14.80;8.63;;;;;;;-2.09;71.73;100192.50;5036848;28;20049;-55
2022/03/02 01:53:38;;;;;;;20.73;9.77;;;;;;;-2.00;71.61;100186.44;5034094;28;20450;-56
2022/03/02 01:56:04;;;;;;;17.50;9.27;;;;;;;-1.95;72.83;100186.00;5035816;28;20400;-55
2022/03/02 01:58:29;;;;;;;19.98;9.90;;;;;;;-2.06;71.60;100186.13;5031778;28;20029;-55
2022/03/02 02:00:55;;;;;;;17.40;8.85;;;;;;;-1.99;71.87;100182.81;5028144;28;20332;-56
2022/03/02 02:03:20;;;;;;;18.20;9.35;;;;;;;-1.88;73.01;100188.91;5034186;28;20502;-54
2022/03/02 02:05:46;;;;;;;23.50;9.68;;;;;;;-1.83;71.94;100189.31;5032560;28;20388;-55
2022/03/02 02:08:11;;;;;;;17.70;10.23;;;;;;;-1.90;73.65;100190.84;5039205;28;20025;-56
2022/03/02 02:10:37;;;;;;;17.02;9.43;;;;;;;-2.15;73.52;100193.03;5029880;28;20045;-53
2022/03/02 02:13:02;;;;;;;16.90;9.40;;;;;;;-1.68;83.85;100184.47;5035128;28;20029;-54
2022/03/02 02:15:28;;;;;;;19.25;10.27;;;;;;;-1.85;80.68;100184.19;5028212;28;20118;-55
2022/03/02 02:17:53;;;;;;;19.63;9.63;;;;;;;-2.00;74.72;100178.53;5033424;28;20034;-55
2022/03/02 02:20:19;;;;;;;16.15;9.02;;;;;;;-2.13;75.39;100169.25;5032225;28;20025;-55
2022/03/02 02:22:45;;;;;;;18.33;10.27;;;;;;;-2.22;73.39;100171.75;5028412;28;20068;-55
2022/03/02 02:25:11;;;;;;;19.70;10.20;;;;;;;-2.27;74.01;100183.59;5033066;28;20025;-54
2022/03/02 02:27:37;;;;;;;19.00;9.93;;;;;;;-2.41;74.94;100183.03;5031981;28;20116;-53
2022/03/02 02:30:03;;;;;;;23.27;10.43;;;;;;;-2.52;76.17;100175.31;5027701;28;20459;-54
2022/03/02 02:32:29;;;;;;;19.17;10.70;;;;;;;-2.21;85.87;100167.31;5039201;28;20065;-54
2022/03/02 02:34:55;;;;;;;21.23;10.52;;;;;;;-2.16;81.48;100170.38;5038896;28;20456;-54
2022/03/02 02:37:20;;;;;;;20.58;10.15;;;;;;;-2.11;76.47;100173.41;5034317;28;20099;-54
2022/03/02 02:39:54;;;;;;;20.90;11.05;;;;;;;-1.79;79.69;100177.56;5013783;28;20034;-54
2022/03/02 02:42:19;;;;;;;21.15;9.93;;;;;;;-1.92;76.55;100166.50;5031407;28;20344;-52
2022/03/02 02:44:45;;;;;;;17.58;10.02;;;;;;;-2.19;76.10;100166.22;5033042;28;20054;-55
2022/03/02 02:47:11;;;;;;;16.67;9.82;;;;;;;-2.40;75.79;100168.97;5035757;28;20053;-54
2022/03/02 02:49:36;;;;;;;17.27;9.55;;;;;;;-2.45;80.61;100171.16;5037923;28;20047;-55
2022/03/02 02:52:04;;;;;;;22.23;10.27;;;;;;;-2.59;78.44;100163.69;5037889;28;20503;-55
2022/03/02 02:54:29;;;;;;;18.70;10.27;;;;;;;-2.57;77.32;100159.13;5036665;28;20029;-53
2022/03/02 02:56:54;;;;;;;20.42;10.10;;;;;;;-2.28;76.81;100160.97;5032167;28;20407;-52
2022/03/02 02:59:20;;;;;;;25.30;10.77;;;;;;;-2.26;75.76;100159.03;5032764;28;20026;-52
2022/03/02 03:01:45;;;;;;;16.42;9.98;;;;;;;-2.44;76.51;100157.06;5030674;28;20126;-55
2022/03/02 03:04:12;;;;;;;21.15;10.10;;;;;;;-2.61;76.91;100155.09;5034940;28;20053;-52
2022/03/02 03:06:37;;;;;;;18.27;10.70;;;;;;;-2.79;78.35;100151.47;5044809;28;20084;-53
2022/03/02 03:09:02;;;;;;;23.02;11.18;;;;;;;-2.53;78.58;100144.75;5038662;28;20550;-52
2022/03/02 03:11:28;;;;;;;20.17;10.07;;;;;;;-2.70;77.71;100134.91;5034519;28;20087;-55
2022/03/02 03:13:53;;;;;;;20.73;10.60;;;;;;;-2.30;77.98;100141.88;5032537;28;20436;-54
2022/03/02 03:16:19;;;;;;;19.55;10.65;;;;;;;-2.05;79.25;100149.19;5036543;28;20060;-53
2022/03/02 03:18:44;;;;;;;23.13;10.88;;;;;;;-1.88;76.41;100147.69;5037205;28;20491;-52
2022/03/02 03:21:09;;;;;;;20.92;10.48;;;;;;;-1.94;76.01;100142.16;5038375;28;20052;-53
2022/03/02 03:23:35;;;;;;;17.40;9.77;;;;;;;-2.07;76.42;100147.69;5038617;28;20041;-54
2022/03/02 03:26:00;;;;;;;20.60;10.75;;;;;;;-2.30;76.87;100131.38;5035675;28;20420;-54
2022/03/02 03:28:26;;;;;;;21.55;10.63;;;;;;;-2.20;77.36;100132.19;5030766;28;20103;-53
2022/03/02 03:30:51;;;;;;;18.95;10.30;;;;;;;-2.20;76.59;100129.56;5035511;28;20049;-53
2022/03/02 03:33:17;;;;;;;20.20;10.93;;;;;;;-2.27;77.20;100125.84;5030351;28;20037;-54
2022/03/02 03:35:42;;;;;;;15.18;9.65;;;;;;;-2.27;78.68;100131.94;5036512;28;20053;-54
2022/03/02 03:38:07;;;;;;;22.92;10.00;;;;;;;-2.40;79.02;100137.47;5033394;28;20422;-54
2022/03/02 03:40:33;;;;;;;23.20;10.95;;;;;;;-2.51;80.25;100139.38;5035774;28;20120;-55
2022/03/02 03:42:58;;;;;;;20.70;10.13;;;;;;;-2.54;79.74;100142.28;5032847;28;20045;-52
2022/03/02 03:45:24;;;;;;;17.13;10.30;;;;;;;-2.60;79.27;100135.75;5034406;28;20396;-54
2022/03/02 03:47:49;;;;;;;19.55;9.60;;;;;;;-2.48;78.68;100129.41;5037521;28;20503;-55
2022/03/02 03:50:15;;;;;;;20.38;10.68;;;;;;;-2.05;83.10;100120.31;5033268;28;20037;-52
2022/03/02 03:52:40;;;;;;;20.45;9.80;;;;;;;-2.16;76.03;100120.47;5030712;28;20041;-52
2022/03/02 03:55:06;;;;;;;17.05;9.63;;;;;;;-2.17;76.20;100132.78;5032313;28;20451;-53
2022/03/02 03:57:32;;;;;;;20.77;10.50;;;;;;;-2.12;77.16;100121.84;5028928;28;20080;-55
2022/03/02 03:59:57;;;;;;;17.45;10.48;;;;;;;-2.13;76.31;100125.44;5036503;28;20443;-55
2022/03/02 04:02:23;;;;;;;18.10;9.55;;;;;;;-2.09;77.69;100129.44;5034831;28;20052;-53
2022/03/02 04:04:48;;;;;;;20.25;10.55;;;;;;;-2.07;75.90;100127.53;5039941;28;20048;-55
2022/03/02 04:07:13;;;;;;;21.02;10.98;;;;;;;-2.02;76.24;100125.31;5043426;28;20037;-54
2022/03/02 04:09:39;;;;;;;23.35;10.77;;;;;;;-2.16;77.73;100125.72;5032734;28;20040;-54
2022/03/02 04:12:05;;;;;;;18.40;10.45;;;;;;;-2.18;77.81;100117.97;5029462;28;20048;-52
2022/03/02 04:14:30;;;;;;;20.83;10.55;;;;;;;-2.00;76.62;100123.38;5036722;28;20348;-53
2022/03/02 04:16:56;;;;;;;29.25;11.38;;;;;;;-1.85;75.97;100112.41;5032410;28;20487;-52
2022/03/02 04:19:21;;;;;;;20.35;10.32;;;;;;;-1.85;75.52;100117.66;5032772;28;20029;-53
2022/03/02 04:21:46;;;;;;;20.10;11.43;;;;;;;-1.80;76.69;100116.28;5036766;28;20402;-52
2022/03/02 04:24:12;;;;;;;18.33;10.80;;;;;;;-1.58;78.96;100101.97;5029596;28;20446;-54
2022/03/02 04:26:37;;;;;;;21.42;10.60;;;;;;;-1.49;80.76;100100.31;5033034;28;20053;-53
2022/03/02 04:29:03;;;;;;;21.27;11.05;;;;;;;-1.48;78.00;100109.00;5034112;28;20485;-54
2022/03/02 04:31:28;;;;;;;23.05;11.57;;;;;;;-1.57;76.82;100106.28;5031579;28;20046;-56
2022/03/02 04:33:54;;;;;;;22.92;11.10;;;;;;;-1.57;76.27;100101.03;5029709;28;20103;-53
2022/03/02 04:36:19;;;;;;;20.52;11.45;;;;;;;-1.59;76.53;100105.59;5039446;28;20056;-54
2022/03/02 04:38:44;;;;;;;22.42;11.18;;;;;;;-1.62;76.85;100105.88;5038297;28;20110;-52
2022/03/02 04:41:10;;;;;;;21.25;11.10;;;;;;;-1.72;77.51;100107.69;5034255;28;20053;-52
2022/03/02 04:43:36;;;;;;;20.85;10.73;;;;;;;-1.83;78.29;100103.41;5036869;28;21470;-52
2022/03/02 04:46:01;;;;;;;21.08;11.18;;;;;;;-1.80;78.01;100118.06;5035870;28;20494;-55
2022/03/02 04:48:26;;;;;;;22.15;10.38;;;;;;;-1.79;77.79;100114.50;5037501;28;20025;-54
2022/03/02 04:50:52;;;;;;;24.65;11.55;;;;;;;-1.74;78.13;100107.00;5027907;28;20499;-54
2022/03/02 04:53:18;;;;;;;23.30;11.77;;;;;;;-1.71;78.66;100111.16;5031132;28;20017;-54
2022/03/02 04:55:47;;;;;;;26.75;12.70;;;;;;;-1.71;79.26;100111.16;5028488;28;20053;-53
2022/03/02 04:58:12;;;;;;;29.88;12.80;;;;;;;-1.78;79.38;100113.50;5032047;28;20049;-54
2022/03/02 05:00:38;;;;;;;20.58;11.57;;;;;;;-1.85;81.08;100115.84;5039483;28;20056;-54
2022/03/02 05:03:04;;;;;;;24.70;11.88;;;;;;;-1.72;81.18;100115.59;5033692;28;20037;-53
2022/03/02 05:05:32;;;;;;;22.92;12.68;;;;;;;-1.66;80.67;100115.00;5027541;28;20111;-54
2022/03/02 05:07:58;;;;;;;19.95;12.02;;;;;;;-1.68;80.42;100106.44;5029189;28;20052;-54
2022/03/02 05:10:23;;;;;;;24.75;11.30;;;;;;;-1.36;86.04;100111.31;5031246;28;20048;-53
2022/03/02 05:12:49;;;;;;;21.70;11.65;;;;;;;-1.08;85.67;100098.19;5028804;28;20044;-53
2022/03/02 05:15:15;;;;;;;22.15;11.13;;;;;;;-0.97;85.56;100107.72;5036326;28;20376;-53
2022/03/02 05:17:40;;;;;;;19.60;10.82;;;;;;;-0.92;85.46;100102.84;5037691;28;20033;-54
2022/03/02 05:20:06;;;;;;;21.58;11.40;;;;;;;-1.19;77.18;100096.59;5039467;28;20033;-53
2022/03/02 05:22:32;;;;;;;20.42;11.30;;;;;;;-1.24;80.38;100098.81;5035799;28;20431;-54
2022/03/02 05:24:57;;;;;;;21.23;11.57;;;;;;;-1.42;79.06;100095.28;5029334;28;20029;-54
2022/03/02 05:27:24;;;;;;;20.15;10.98;;;;;;;-1.38;81.39;100094.03;5038385;28;20471;-54
2022/03/02 05:29:49;;;;;;;21.08;11.65;;;;;;;-1.37;77.71;100098.34;5030914;28;20029;-52
2022/03/02 05:32:15;;;;;;;22.33;11.57;;;;;;;-1.40;77.55;100088.06;5010140;28;20037;-52
2022/03/02 05:34:40;;;;;;;20.73;11.18;;;;;;;-1.46;78.79;100099.19;5028847;28;20033;-54
2022/03/02 05:37:05;;;;;;;22.30;10.95;;;;;;;-1.56;79.47;100091.31;5028967;28;20240;-53
2022/03/02 05:39:31;;;;;;;18.92;10.63;;;;;;;-1.60;79.68;100100.47;5030895;28;20582;-54
2022/03/02 05:41:56;;;;;;;25.48;11.68;;;;;;;-1.57;79.88;100103.66;5041701;28;20064;-54
2022/03/02 05:44:22;;;;;;;25.63;12.38;;;;;;;-1.64;81.31;100101.72;5034864;28;20403;-55
2022/03/02 05:46:48;;;;;;;23.85;13.20;;;;;;;-1.56;83.54;100100.03;5036552;28;20555;-54
2022/03/02 05:49:13;;;;;;;20.65;12.57;;;;;;;-1.61;82.64;100102.25;5033883;28;20037;-55
2022/03/02 05:51:39;;;;;;;26.02;12.15;;;;;;;-1.66;82.93;100109.75;5033706;28;20175;-53
2022/03/02 05:54:04;;;;;;;21.10;11.73;;;;;;;-1.77;82.57;100108.13;5044868;28;20036;-55
2022/03/02 05:56:30;;;;;;;23.83;10.95;;;;;;;-1.89;82.74;100103.16;5033530;28;20795;-54
2022/03/02 05:58:56;;;;;;;22.77;10.40;;;;;;;-2.04;81.34;100100.13;5033921;28;20041;-55
2022/03/02 06:01:21;;;;;;;20.70;11.07;;;;;;;-1.92;80.75;100099.03;5037336;28;20537;-54
2022/03/02 06:03:49;;;;;;;21.23;10.30;;;;;;;-1.80;79.36;100100.53;5034180;28;20383;-53
2022/03/02 06:06:14;;;;;;;18.88;10.80;;;;;;;-1.70;77.85;100102.28;5034243;28;20041;-53
2022/03/02 06:08:40;;;;;;;19.52;11.05;;;;;;;-1.55;79.33;100106.97;5031983;28;20048;-52
2022/03/02 06:11:06;;;;;;;25.55;11.15;;;;;;;-1.52;76.47;100101.41;5038446;28;20040;-53
2022/03/02 06:13:32;;;;;;;20.48;11.00;;;;;;;-1.52;76.48;100097.97;5032308;28;20136;-53
2022/03/02 06:15:58;;;;;;;20.45;10.70;;;;;;;-1.46;77.34;100099.19;5035365;28;20162;-56
2022/03/02 06:18:24;;;;;;;22.42;11.55;;;;;;;-1.47;77.01;100093.09;5037469;28;20490;-54
2022/03/02 06:20:51;;;;;;;23.67;11.60;;;;;;;-1.50;77.77;100098.63;5040690;28;20044;-55
2022/03/02 06:23:18;;;;;;;19.00;10.77;;;;;;;-1.55;77.89;100091.19;5030550;28;20216;-55
2022/03/02 06:25:44;;;;;;;25.13;11.98;;;;;;;-1.48;77.73;100087.97;5035390;28;20068;-53
2022/03/02 06:28:10;;;;;;;22.88;10.70;;;;;;;-1.52;77.56;100093.53;5039748;28;20029;-52
2022/03/02 06:30:35;;;;;;;25.45;11.05;;;;;;;-1.40;77.19;100094.19;5032247;28;20502;-54
2022/03/02 06:33:01;;;;;;;21.08;11.05;;;;;;;-1.31;77.16;100087.22;5039939;28;20029;-53
2022/03/02 06:35:26;;;;;;;21.42;11.15;;;;;;;-1.38;76.59;100083.50;5037431;28;20464;-55
2022/03/02 06:37:52;;;;;;;24.88;12.43;;;;;;;-1.11;77.78;100083.53;5036129;28;20378;-52
2022/03/02 06:40:17;;;;;;;20.67;10.80;;;;;;;-1.26;76.54;100079.72;5041244;28;20398;-52
2022/03/02 06:43:11;;;;;;;19.90;10.98;;;;;;;-1.21;76.43;100090.63;5043690;28;20395;-52
2022/03/02 06:45:55;;;;;;;25.77;12.27;;;;;;;-1.13;75.94;100090.72;5033619;28;20045;-54
2022/03/02 06:48:26;;;;;;;24.30;10.85;;;;;;;-0.99;75.89;100093.88;5034550;28;20037;-53
2022/03/02 06:50:53;;;;;;;21.20;11.55;;;;;;;-0.87;75.56;100095.31;5014904;28;20059;-53
2022/03/02 06:53:28;;;;;;;21.75;12.13;;;;;;;-0.82;76.08;100084.34;5033737;28;20029;-55
2022/03/02 06:55:55;;;;;;;23.23;12.90;;;;;;;-0.71;75.67;100092.03;5030141;28;20049;-55
2022/03/02 06:58:20;;;;;;;25.10;12.20;;;;;;;-0.65;76.53;100088.78;5029759;28;20012;-52
2022/03/02 07:00:52;;;;;;;21.42;11.90;;;;;;;-0.63;76.65;100086.03;5033569;28;20045;-55
2022/03/02 07:03:19;;;;;;;28.13;12.27;;;;;;;-0.61;77.19;100091.97;5029528;28;20557;-55
2022/03/02 07:05:46;;;;;;;26.63;12.45;;;;;;;-0.54;76.77;100088.59;5030525;28;20053;-52
2022/03/02 07:08:11;;;;;;;23.35;12.18;;;;;;;-0.49;76.85;100088.16;5036499;28;20040;-54
2022/03/02 07:10:37;;;;;;;29.95;13.32;;;;;;;-0.36;76.34;100093.03;5038776;28;20051;-54
2022/03/02 07:13:04;;;;;;;34.50;14.48;;;;;;;-0.20;75.40;100097.63;5030155;28;20151;-55
2022/03/02 07:15:32;;;;;;;25.45;13.10;;;;;;;-0.12;74.68;100095.06;5037211;28;20530;-54
2022/03/02 07:18:02;;;;;;;27.48;13.75;;;;;;;0.00;74.14;100099.13;5028331;28;20052;-55
2022/03/02 07:20:28;;;;;;;22.35;12.77;;;;;;;0.00;74.10;100093.84;5037130;28;20037;-55
2022/03/02 07:22:55;;;;;;;28.55;13.15;;;;;;;-0.10;75.60;100098.34;5036806;28;20454;-55
2022/03/02 07:25:24;;;;;;;31.25;15.15;;;;;;;-0.08;75.50;100099.03;5035517;28;20128;-55
2022/03/02 07:27:50;;;;;;;22.02;12.98;;;;;;;-0.17;74.59;100097.34;5037959;28;20036;-55
2022/03/02 07:30:18;;;;;;;23.38;13.57;;;;;;;0.17;73.00;100090.34;5037128;28;20029;-55
2022/03/02 07:32:45;;;;;;;29.23;13.70;;;;;;;0.43;72.99;100090.34;5038794;28;20029;-55
2022/03/02 07:35:11;;;;;;;26.40;12.40;;;;;;;0.70;73.50;100095.59;5030685;28;20039;-54
2022/03/02 07:37:36;;;;;;;25.02;13.60;;;;;;;0.87;73.63;100089.41;5037638;28;20026;-54
2022/03/02 07:40:02;;;;;;;24.63;13.40;;;;;;;0.55;74.88;100088.28;5014657;28;20025;-55
2022/03/02 07:42:28;;;;;;;25.52;13.73;;;;;;;0.50;75.07;100092.34;5036528;28;20025;-54
2022/03/02 07:44:54;;;;;;;26.48;14.18;;;;;;;0.82;73.89;100095.19;5051357;28;20056;-55
2022/03/02 07:47:19;;;;;;;24.35;12.80;;;;;;;0.94;73.38;100093.06;5039169;28;20041;-55
2022/03/02 07:49:46;;;;;;;22.05;13.18;;;;;;;1.04;72.51;100092.94;5032627;28;20513;-55
2022/03/02 07:52:11;;;;;;;31.25;15.50;;;;;;;1.23;73.17;100084.75;5034325;28;20049;-55
2022/03/02 07:54:38;;;;;;;28.10;13.98;;;;;;;1.05;73.76;100089.34;5030820;28;20045;-53
2022/03/02 07:57:07;;;;;;;25.63;14.52;;;;;;;0.79;73.59;100084.09;5032916;28;20049;-54
2022/03/02 07:59:36;;;;;;;22.98;13.60;;;;;;;0.91;72.65;100087.28;5035754;28;20040;-55
2022/03/02 08:02:03;;;;;;;28.25;14.18;;;;;;;0.90;71.57;100082.97;5039956;28;20045;-53
2022/03/02 08:04:29;;;;;;;24.83;13.32;;;;;;;1.37;71.09;100088.56;5029988;28;20033;-54
2022/03/02 08:06:54;;;;;;;26.45;13.82;;;;;;;1.62;66.84;100104.47;5034657;28;20107;-53
2022/03/02 08:09:20;;;;;;;30.42;14.07;;;;;;;1.66;67.59;100100.53;5030350;28;20075;-53
2022/03/02 08:11:45;;;;;;;27.88;13.20;;;;;;;1.74;65.15;100097.91;5034168;28;20455;-52
2022/03/02 08:14:10;;;;;;;27.00;12.55;;;;;;;1.75;64.49;100101.34;5041469;28;20032;-53
2022/03/02 08:16:36;;;;;;;26.73;13.45;;;;;;;2.25;64.20;100105.69;5035779;28;20048;-53
2022/03/02 08:19:02;;;;;;;26.52;13.73;;;;;;;2.27;62.94;100109.81;5031154;28;20110;-54
2022/03/02 08:21:31;;;;;;;25.02;13.27;;;;;;;2.07;64.02;100108.47;5034050;28;20072;-52
2022/03/02 08:23:58;;;;;;;29.75;14.43;;;;;;;2.02;64.35;100113.44;5035917;28;20115;-55
2022/03/02 08:26:24;;;;;;;30.10;15.77;;;;;;;2.15;63.28;100109.31;5032879;28;20123;-55
2022/03/02 08:28:54;;;;;;;29.20;15.57;;;;;;;1.99;64.55;100111.94;5032384;28;20140;-55
2022/03/02 08:31:20;;;;;;;24.98;14.25;;;;;;;2.02;65.54;100108.16;5037481;28;20479;-55
2022/03/02 08:33:45;;;;;;;29.05;15.30;;;;;;;2.14;63.89;100120.03;5031540;28;20035;-54
2022/03/02 08:36:11;;;;;;;37.90;15.88;;;;;;;2.21;63.96;100128.97;5031892;28;20071;-55
2022/03/02 08:38:40;;;;;;;33.05;14.20;;;;;;;2.17;64.02;100114.41;5005419;28;20032;-54
2022/03/02 08:41:07;;;;;;;44.35;15.52;;;;;;;2.05;64.60;100118.41;5040690;28;20486;-55
2022/03/02 08:43:33;;;;;;;40.80;14.95;;;;;;;2.05;65.17;100118.41;5043274;28;20041;-54
2022/03/02 08:45:58;;;;;;;50.05;17.05;;;;;;;2.14;64.10;100112.94;5029064;28;20059;-54
2022/03/02 08:48:24;;;;;;;48.20;16.02;;;;;;;1.99;64.51;100111.94;5032661;28;20325;-54
2022/03/02 08:50:49;;;;;;;41.70;15.93;;;;;;;2.00;63.99;100104.84;5037373;28;20119;-54
2022/03/02 08:53:16;;;;;;;46.88;15.82;;;;;;;2.10;64.14;100105.53;5033608;28;20053;-56
2022/03/02 08:55:42;;;;;;;38.10;16.88;;;;;;;2.15;64.14;100108.50;5038370;28;20072;-55
2022/03/02 08:58:08;;;;;;;33.58;15.82;;;;;;;2.60;63.55;100109.75;5034297;28;20025;-56
2022/03/02 09:00:33;;;;;;;40.35;17.75;;;;;;;3.08;62.88;100105.28;5029535;28;20129;-55
2022/03/02 09:02:59;;;;;;;74.63;25.17;;;;;;;3.40;62.26;100103.47;5024253;28;20029;-55
2022/03/02 09:05:27;;;;;;;44.33;17.02;;;;;;;3.13;62.46;100100.28;5028843;28;20053;-55
2022/03/02 09:07:53;;;;;;;58.83;17.85;;;;;;;3.12;62.05;100108.41;5037517;28;20073;-52
2022/03/02 09:10:18;;;;;;;47.92;16.60;;;;;;;2.78;63.61;100105.06;5019071;28;20244;-55
2022/03/02 09:12:44;;;;;;;48.42;16.27;;;;;;;2.96;63.18;100098.72;5031670;28;20037;-54
2022/03/02 09:15:09;;;;;;;57.25;16.48;;;;;;;2.91;62.68;100101.03;5030307;28;20029;-54
2022/03/02 09:17:35;;;;;;;49.55;16.38;;;;;;;3.05;63.18;100097.69;5032467;28;20410;-55
2022/03/02 09:20:01;;;;;;;43.13;15.80;;;;;;;3.07;63.66;100101.00;5027747;28;20427;-55
2022/03/02 09:22:27;;;;;;;45.58;16.35;;;;;;;2.75;64.64;100100.09;5032749;28;20487;-56
2022/03/02 09:24:52;;;;;;;55.20;17.00;;;;;;;2.69;65.90;100099.94;5036961;28;20463;-54
2022/03/02 09:27:18;;;;;;;46.97;16.85;;;;;;;2.71;65.33;100092.66;5031900;28;20033;-55
2022/03/02 09:29:45;;;;;;;48.10;16.42;;;;;;;2.83;64.94;100085.19;5028654;28;20099;-55
2022/03/02 09:32:10;;;;;;;42.95;16.95;;;;;;;3.08;64.09;100084.09;5015307;28;20037;-55
2022/03/02 09:34:36;;;;;;;47.85;17.25;;;;;;;3.00;63.76;100087.59;5008166;28;20056;-55
2022/03/02 09:37:02;;;;;;;44.63;15.55;;;;;;;2.91;66.48;100082.50;5010732;28;20503;-54
2022/03/02 09:39:27;;;;;;;33.80;16.02;;;;;;;3.16;64.36;100085.88;5027304;28;20033;-54
2022/03/02 09:42:10;;;;;;;49.05;16.50;;;;;;;3.33;62.75;100083.97;5032204;28;20265;-54
2022/03/02 09:44:46;;;;;;;48.35;17.88;;;;;;;3.50;62.74;100080.22;5040227;28;20036;-54
2022/03/02 09:47:21;;;;;;;52.03;18.73;;;;;;;3.10;63.37;100071.50;5037064;28;20563;-54
2022/03/02 09:49:55;;;;;;;47.75;18.13;;;;;;;3.08;63.21;100068.19;5038246;28;20513;-54
2022/03/02 09:52:20;;;;;;;53.50;17.13;;;;;;;3.24;62.35;100072.56;5042715;28;20095;-54
2022/03/02 09:54:47;;;;;;;44.08;17.27;;;;;;;3.59;61.58;100060.59;5039604;28;20382;-53
2022/03/02 09:57:13;;;;;;;45.97;17.15;;;;;;;4.19;59.31;100063.41;5039056;28;20048;-54
2022/03/02 09:59:39;;;;;;;40.33;17.63;;;;;;;5.90;54.98;100056.91;5015696;28;20187;-54
2022/03/02 10:02:10;;;;;;;35.83;17.50;;;;;;;5.68;54.52;100061.41;5032182;28;20045;-54
2022/03/02 10:04:36;;;;;;;44.00;17.45;;;;;;;5.01;55.96;100058.03;5038094;28;20064;-54
2022/03/02 10:09:51;;;;;;;43.72;18.60;;;;;;;6.24;52.84;100051.69;5037931;28;20489;-54
2022/03/02 10:12:20;;;;;;;40.92;17.48;;;;;;;7.07;49.98;100050.91;5036083;28;20560;-54
2022/03/02 10:14:46;;;;;;;40.97;17.00;;;;;;;7.28;48.91;100053.44;5036554;28;20033;-54
2022/03/02 10:17:11;;;;;;;50.60;16.90;;;;;;;7.12;49.32;100048.47;5028441;28;20045;-54
2022/03/02 10:19:44;;;;;;;46.70;17.73;;;;;;;7.60;47.90;100044.91;5038550;28;20045;-54
2022/03/02 10:22:22;;;;;;;39.00;16.85;;;;;;;8.00;47.81;100046.56;5037689;28;20069;-54
2022/03/02 10:24:48;;;;;;;39.20;18.30;;;;;;;8.72;45.93;100045.88;5030818;28;20067;-54
2022/03/02 10:27:36;;;;;;;42.03;17.42;;;;;;;8.42;47.30;100047.16;5052483;28;20037;-55
2022/03/02 10:30:07;;;;;;;36.05;16.95;;;;;;;9.15;44.35;100045.28;5030777;28;20036;-54
2022/03/02 10:32:35;;;;;;;39.50;17.33;;;;;;;9.41;42.62;100041.66;5032492;28;20029;-55
2022/03/02 10:35:06;;;;;;;35.90;15.88;;;;;;;9.16;43.27;100033.56;5049206;28;20052;-56
2022/03/02 10:37:38;;;;;;;30.95;15.98;;;;;;;8.69;43.10;100039.09;5037826;28;20025;-54
2022/03/02 10:40:12;;;;;;;23.13;12.63;;;;;;;7.92;40.19;100032.59;5042556;28;20037;-55
2022/03/02 10:42:41;;;;;;;22.13;11.57;;;;;;;8.07;41.37;100025.19;5034300;28;20036;-54
2022/03/02 10:45:08;;;;;;;22.77;12.45;;;;;;;7.26;41.25;100034.16;5033367;28;20045;-54
2022/03/02 10:47:41;;;;;;;21.88;11.15;;;;;;;7.55;41.81;100027.63;5033330;28;20052;-54
2022/03/02 10:50:07;;;;;;;19.23;11.13;;;;;;;7.16;40.39;100038.22;5033116;28;20705;-54
2022/03/02 10:52:36;;;;;;;20.33;11.55;;;;;;;6.09;41.20;100037.66;5017899;28;20591;-53
2022/03/02 10:55:05;;;;;;;19.42;10.15;;;;;;;6.35;41.39;100030.88;5031340;28;20029;-51
2022/03/02 10:57:30;;;;;;;15.60;9.63;;;;;;;6.07;39.75;100029.03;5039223;28;20029;-54
2022/03/02 10:59:55;;;;;;;19.92;10.68;;;;;;;7.33;38.94;100023.50;5014176;28;20533;-52
2022/03/02 11:02:21;;;;;;;22.35;10.70;;;;;;;7.08;39.73;100026.69;5012838;28;20041;-53
2022/03/02 11:04:47;;;;;;;18.77;10.13;;;;;;;6.59;39.82;100029.56;5043614;28;20115;-53
2022/03/02 11:07:12;;;;;;;17.85;9.77;;;;;;;7.02;41.13;100027.50;5014648;28;20064;-54
2022/03/02 11:09:38;;;;;;;19.20;10.93;;;;;;;6.39;41.44;100027.63;5023381;28;20029;-54
2022/03/02 11:12:04;;;;;;;16.55;10.27;;;;;;;6.61;41.56;100020.34;5044648;28;20045;-55
2022/03/02 11:14:30;;;;;;;21.77;12.23;;;;;;;6.99;40.44;100024.41;5036543;28;20038;-54